Tarrant West's Hourly Summary for Monday, March 13, 2017
Hour Temp
(f)
RH
(%)
Solar Rad.
(MJ/m2)
Rainfall
(in)
Wind
(mph)
3/13/2017 12:00 AM 46 90 0 0 5.63
3/13/2017 1:00 AM 46 93 0 0 3.7
3/13/2017 2:00 AM 46 96 0 0 5.97
3/13/2017 3:00 AM 46 95 0 0 6.85
3/13/2017 4:00 AM 46 95 0 0.01 4.63
3/13/2017 5:00 AM 46 96 0 0 4.08
3/13/2017 6:00 AM 47 96 0 0 4.63
3/13/2017 7:00 AM 47 95 0 0 8.05
3/13/2017 8:00 AM 47 90 0.06 0 5.65
3/13/2017 9:00 AM 49 84 0.47 0 5.03
3/13/2017 10:00 AM 53 70 1.5 0 10.82
3/13/2017 11:00 AM 55 62 1.96 0 14.88
3/13/2017 12:00 PM 58 56 2.6 0 13.88
3/13/2017 1:00 PM 59 50 2.97 0 14.3
3/13/2017 2:00 PM 62 43 2.98 0 12.4
3/13/2017 3:00 PM 62 35 2.74 0.01 13.95
3/13/2017 4:00 PM 62 33 1.69 0 14.9
3/13/2017 5:00 PM 61 32 0.56 0 14.18
3/13/2017 6:00 PM 59 31 0.51 0 14.13
3/13/2017 7:00 PM 56 34 0.1 0 11.7
3/13/2017 8:00 PM 52 35 0 0 10
3/13/2017 9:00 PM 49 37 0 0 9.88
3/13/2017 10:00 PM 46 38 0 0 7.97
3/13/2017 11:00 PM 44 40 0 0 8.93
Data Summary 51 63 18.14 0.02 9.42